createdAt,value
2023-04-24T00:01:02.445Z,6.93
2023-04-24T00:03:31.340Z,6.13
2023-04-24T00:06:00.318Z,6.28
2023-04-24T00:08:28.757Z,6.95
2023-04-24T00:10:57.475Z,6.03
2023-04-24T00:13:25.923Z,5.57
2023-04-24T00:15:54.748Z,6.60
2023-04-24T00:18:23.265Z,5.50
2023-04-24T00:20:52.154Z,5.93
2023-04-24T00:23:20.579Z,5.85
2023-04-24T00:25:49.308Z,5.90
2023-04-24T00:28:17.629Z,5.85
2023-04-24T00:30:46.618Z,5.35
2023-04-24T00:33:15.044Z,5.75
2023-04-24T00:35:43.864Z,5.43
2023-04-24T00:38:13.116Z,6.22
2023-04-24T00:40:41.903Z,6.55
2023-04-24T00:43:11.124Z,6.18
2023-04-24T00:45:40.093Z,5.85
2023-04-24T00:48:08.763Z,6.30
2023-04-24T00:50:40.536Z,6.45
2023-04-24T00:53:08.969Z,6.57
2023-04-24T00:55:38.629Z,6.43
2023-04-24T00:58:06.996Z,6.40
2023-04-24T01:00:36.269Z,6.38
2023-04-24T01:03:07.255Z,6.50
2023-04-24T01:05:36.200Z,6.07
2023-04-24T01:08:04.587Z,7.13
2023-04-24T01:10:33.509Z,6.72
2023-04-24T01:13:01.972Z,6.28
2023-04-24T01:15:30.952Z,7.35
2023-04-24T01:17:59.449Z,7.10
2023-04-24T01:20:28.228Z,6.47
2023-04-24T01:22:58.000Z,7.32
2023-04-24T01:25:27.080Z,8.30
2023-04-24T01:27:56.009Z,6.63
2023-04-24T01:30:24.821Z,7.30
2023-04-24T01:32:53.481Z,7.05
2023-04-24T01:35:22.601Z,7.75
2023-04-24T01:37:51.352Z,7.05
2023-04-24T01:40:19.936Z,6.90
2023-04-24T01:42:48.346Z,8.43
2023-04-24T01:45:17.037Z,8.48
2023-04-24T01:47:45.440Z,7.60
2023-04-24T01:50:14.242Z,8.07
2023-04-24T01:52:42.738Z,8.20
2023-04-24T01:55:12.427Z,7.35
2023-04-24T01:57:40.856Z,8.20
2023-04-24T02:00:13.266Z,7.63
2023-04-24T02:02:43.692Z,7.90
2023-04-24T02:05:13.783Z,7.93
2023-04-24T02:07:42.215Z,7.82
2023-04-24T02:10:11.923Z,8.50
2023-04-24T02:12:44.566Z,10.13
2023-04-24T02:15:13.577Z,9.57
2023-04-24T02:17:42.107Z,10.57
2023-04-24T02:20:11.290Z,10.07
2023-04-24T02:22:40.539Z,9.15
2023-04-24T02:25:10.064Z,10.18
2023-04-24T02:27:38.492Z,11.10
2023-04-24T02:30:09.387Z,11.15
2023-04-24T02:32:37.811Z,10.32
2023-04-24T02:35:07.573Z,10.98
2023-04-24T02:37:36.136Z,9.50
2023-04-24T02:40:07.171Z,10.18
2023-04-24T02:42:35.765Z,9.07
2023-04-24T02:45:04.932Z,11.00
2023-04-24T02:47:33.378Z,9.68
2023-04-24T02:50:04.264Z,9.20
2023-04-24T02:52:32.639Z,9.20
2023-04-24T02:55:01.661Z,9.18
2023-04-24T02:57:30.037Z,8.32
2023-04-24T02:59:58.744Z,8.63
2023-04-24T03:02:27.317Z,8.68
2023-04-24T03:04:56.613Z,9.93
2023-04-24T03:07:25.283Z,9.25
2023-04-24T03:09:54.323Z,8.95
2023-04-24T03:12:25.013Z,9.60
2023-04-24T03:14:53.811Z,8.57
2023-04-24T03:17:22.174Z,9.30
2023-04-24T03:19:51.067Z,9.55
2023-04-24T03:22:20.135Z,8.25
2023-04-24T03:24:49.258Z,9.88
2023-04-24T03:27:20.057Z,8.18
2023-04-24T03:29:56.795Z,8.52
2023-04-24T03:32:35.678Z,8.63
2023-04-24T03:35:06.231Z,8.95
2023-04-24T03:37:34.813Z,9.32
2023-04-24T03:40:21.567Z,7.78
2023-04-24T03:42:49.971Z,8.27
2023-04-24T03:45:19.857Z,8.63
2023-04-24T03:47:51.700Z,8.75
2023-04-24T03:50:20.621Z,8.65
2023-04-24T03:52:49.894Z,8.23
2023-04-24T03:55:28.993Z,8.90
2023-04-24T03:57:57.517Z,9.27
2023-04-24T04:00:27.274Z,9.38
2023-04-24T04:03:11.930Z,8.38
2023-04-24T04:05:41.263Z,8.77
2023-04-24T04:08:09.743Z,10.02
2023-04-24T04:10:38.528Z,8.65
2023-04-24T04:13:07.922Z,9.20
2023-04-24T04:15:37.843Z,9.30
2023-04-24T04:18:06.746Z,9.07
2023-04-24T04:20:35.665Z,8.85
2023-04-24T04:23:04.125Z,8.20
2023-04-24T04:25:51.412Z,9.05
2023-04-24T04:28:22.763Z,9.13
2023-04-24T04:30:55.151Z,9.40
2023-04-24T04:33:27.155Z,9.82
2023-04-24T04:35:58.152Z,8.20
2023-04-24T04:41:13.547Z,8.20
2023-04-24T04:43:44.057Z,8.07
2023-04-24T04:46:13.371Z,8.27
2023-04-24T04:49:02.562Z,8.68
2023-04-24T04:51:32.504Z,9.60
2023-04-24T04:54:01.355Z,9.15
2023-04-24T04:56:30.233Z,8.43
2023-04-24T04:59:01.607Z,8.75
2023-04-24T05:01:30.913Z,8.82
2023-04-24T05:03:59.728Z,8.45
2023-04-24T05:06:29.099Z,8.27
2023-04-24T05:08:58.463Z,9.40
2023-04-24T05:11:40.549Z,9.93
2023-04-24T05:14:08.933Z,9.15
2023-04-24T05:16:41.469Z,9.57
2023-04-24T05:19:13.072Z,9.52
2023-04-24T05:21:43.354Z,9.30
2023-04-24T05:24:12.922Z,8.30
2023-04-24T05:27:10.693Z,8.82
2023-04-24T05:29:42.608Z,8.10
2023-04-24T05:32:12.234Z,7.82
2023-04-24T05:34:41.092Z,7.20
2023-04-24T05:37:11.459Z,8.95
2023-04-24T05:39:40.334Z,8.05
2023-04-24T05:42:09.339Z,8.57
2023-04-24T05:44:37.868Z,7.05
2023-04-24T05:47:07.164Z,7.25
2023-04-24T05:49:35.670Z,6.63
2023-04-24T05:52:06.822Z,5.65
2023-04-24T05:54:35.966Z,5.32
2023-04-24T05:57:08.716Z,4.70
2023-04-24T05:59:51.470Z,4.25
2023-04-24T06:02:22.741Z,3.83
2023-04-24T06:04:52.629Z,4.05
2023-04-24T06:07:21.608Z,3.17
2023-04-24T06:09:50.124Z,3.78
2023-04-24T06:12:19.219Z,3.30
2023-04-24T06:15:05.556Z,2.92
2023-04-24T06:17:54.544Z,2.60
2023-04-24T06:20:23.244Z,2.53
2023-04-24T06:22:52.066Z,2.95
2023-04-24T06:25:20.706Z,2.25
2023-04-24T06:27:49.410Z,2.05
2023-04-24T06:30:17.808Z,2.17
2023-04-24T06:32:46.868Z,2.20
2023-04-24T06:35:17.676Z,2.10
2023-04-24T06:37:46.828Z,1.48
2023-04-24T06:40:15.416Z,1.75
2023-04-24T06:42:44.168Z,1.75
2023-04-24T06:45:12.704Z,2.35
2023-04-24T06:47:41.551Z,2.30
2023-04-24T06:50:10.583Z,2.85
2023-04-24T06:52:39.303Z,2.45
2023-04-24T06:55:08.687Z,2.50
2023-04-24T06:57:37.586Z,2.67
2023-04-24T07:00:07.985Z,3.03
2023-04-24T07:02:36.894Z,2.70
2023-04-24T07:05:06.527Z,2.55
2023-04-24T07:07:35.901Z,3.50
2023-04-24T07:10:05.528Z,3.13
2023-04-24T07:12:34.230Z,3.08
2023-04-24T07:15:03.089Z,2.33
2023-04-24T07:17:31.909Z,2.13
2023-04-24T07:20:00.491Z,1.90
2023-04-24T07:22:29.241Z,1.63
2023-04-24T07:24:57.669Z,1.58
2023-04-24T07:27:27.072Z,1.15
2023-04-24T07:29:55.785Z,1.52
2023-04-24T07:32:24.620Z,1.35
2023-04-24T07:34:53.062Z,1.10
2023-04-24T07:37:22.288Z,1.08
2023-04-24T07:39:50.739Z,1.17
2023-04-24T07:42:19.830Z,0.35
2023-04-24T07:44:49.033Z,0.70
2023-04-24T07:47:18.042Z,0.85
2023-04-24T07:49:46.552Z,0.93
2023-04-24T07:52:15.224Z,0.98
2023-04-24T07:54:44.320Z,0.70
2023-04-24T07:57:13.564Z,0.90
2023-04-24T07:59:42.222Z,0.50
2023-04-24T08:02:11.259Z,0.47
2023-04-24T08:04:40.010Z,0.50
2023-04-24T08:07:09.392Z,0.50
2023-04-24T08:09:37.963Z,0.47
2023-04-24T08:12:06.977Z,0.73
2023-04-24T08:14:35.478Z,0.40
2023-04-24T08:17:04.601Z,0.65
2023-04-24T08:19:33.013Z,0.50
2023-04-24T08:22:01.931Z,1.02
2023-04-24T08:24:30.316Z,0.90
2023-04-24T08:26:59.379Z,13.80
2023-04-24T08:29:27.990Z,10.55
2023-04-24T08:31:57.099Z,6.43
2023-04-24T08:34:25.631Z,7.68
2023-04-24T08:36:54.460Z,4.72
2023-04-24T08:39:23.085Z,4.15
2023-04-24T08:41:51.985Z,2.72
2023-04-24T08:44:21.166Z,0.80
2023-04-24T08:46:50.420Z,0.45
2023-04-24T08:49:19.134Z,0.70
2023-04-24T08:51:48.887Z,0.20
2023-04-24T08:54:17.451Z,0.30
2023-04-24T08:56:46.758Z,0.10
2023-04-24T08:59:18.267Z,0.30
2023-04-24T09:01:47.257Z,0.63
2023-04-24T09:04:17.665Z,0.40
2023-04-24T09:06:47.465Z,0.20
2023-04-24T09:09:15.821Z,0.30
2023-04-24T09:11:44.693Z,0.40
2023-04-24T09:14:13.248Z,0.40
2023-04-24T09:16:42.107Z,0.25
2023-04-24T09:19:10.823Z,0.60
2023-04-24T09:21:39.964Z,0.68
2023-04-24T09:24:18.821Z,0.35
2023-04-24T09:26:48.023Z,0.60
2023-04-24T09:29:18.105Z,0.60
2023-04-24T09:31:47.516Z,0.85
2023-04-24T09:34:16.220Z,0.50
2023-04-24T09:36:45.427Z,0.75
2023-04-24T09:39:16.987Z,0.47
2023-04-24T09:41:51.908Z,0.68
2023-04-24T09:44:22.246Z,0.82
2023-04-24T09:47:01.844Z,0.70
2023-04-24T09:49:31.990Z,0.70
2023-04-24T09:52:11.180Z,0.70
2023-04-24T09:54:41.429Z,1.45
2023-04-24T09:57:10.690Z,1.17
2023-04-24T09:59:45.544Z,0.80
2023-04-24T10:02:21.390Z,0.88
2023-04-24T10:04:57.953Z,0.93
2023-04-24T10:07:30.224Z,0.65
2023-04-24T10:09:58.792Z,0.80
2023-04-24T10:12:28.272Z,0.88
2023-04-24T10:14:56.889Z,1.00
2023-04-24T10:17:26.028Z,1.08
2023-04-24T10:19:54.469Z,0.80
2023-04-24T10:22:23.161Z,0.75
2023-04-24T10:24:51.635Z,0.90
2023-04-24T10:27:21.009Z,0.90
2023-04-24T10:29:49.490Z,1.02
2023-04-24T10:32:18.168Z,1.20
2023-04-24T10:34:46.717Z,2.15
2023-04-24T10:37:15.608Z,1.90
2023-04-24T10:39:44.186Z,3.03
2023-04-24T10:42:17.180Z,2.22
2023-04-24T10:44:45.822Z,1.83
2023-04-24T10:47:15.654Z,2.45
2023-04-24T10:49:44.424Z,2.65
2023-04-24T10:52:13.418Z,2.05
2023-04-24T10:54:48.850Z,2.10
2023-04-24T10:57:20.961Z,2.08
2023-04-24T10:59:51.876Z,1.52
2023-04-24T11:02:21.452Z,1.13
2023-04-24T11:04:51.053Z,1.73
2023-04-24T11:07:21.486Z,2.55
2023-04-24T11:09:49.817Z,2.38
2023-04-24T11:12:18.608Z,2.55
2023-04-24T11:15:00.521Z,2.53
2023-04-24T11:17:40.938Z,2.30
2023-04-24T11:22:43.285Z,1.85
2023-04-24T11:25:13.356Z,1.75
2023-04-24T11:27:43.597Z,1.50
2023-04-24T11:30:12.683Z,1.30
2023-04-24T11:32:43.326Z,1.55
2023-04-24T11:35:24.474Z,1.33
2023-04-24T11:40:28.454Z,1.17
2023-04-24T11:42:57.323Z,1.00
2023-04-24T11:45:28.304Z,2.30
2023-04-24T11:47:57.360Z,1.27
2023-04-24T11:50:30.810Z,0.77
2023-04-24T11:53:01.544Z,0.70
2023-04-24T11:55:30.532Z,0.55
2023-04-24T11:58:00.579Z,0.30
2023-04-24T12:00:31.473Z,0.63
2023-04-24T12:03:11.564Z,0.40
2023-04-24T12:05:40.481Z,0.32
2023-04-24T12:08:09.339Z,0.45
2023-04-24T12:10:37.901Z,0.38
2023-04-24T12:13:06.762Z,0.30
2023-04-24T12:15:35.185Z,0.20
2023-04-24T12:18:05.287Z,0.77
2023-04-24T12:20:36.775Z,0.70
2023-04-24T12:23:05.547Z,1.38
2023-04-24T12:25:34.262Z,1.25
2023-04-24T12:28:06.173Z,1.00
2023-04-24T12:30:40.695Z,0.68
2023-04-24T12:33:09.568Z,1.00
2023-04-24T12:35:38.140Z,1.27
2023-04-24T12:38:09.598Z,0.93
2023-04-24T12:40:38.182Z,1.10
2023-04-24T12:43:18.063Z,1.20
2023-04-24T12:45:47.257Z,1.10
2023-04-24T12:48:16.204Z,1.48
2023-04-24T12:50:46.474Z,0.85
2023-04-24T12:53:17.187Z,1.13
2023-04-24T12:55:46.456Z,0.90
2023-04-24T12:58:15.552Z,0.80
2023-04-24T13:00:44.741Z,0.68
2023-04-24T13:03:14.008Z,1.13
2023-04-24T13:05:43.986Z,1.02
2023-04-24T13:08:14.164Z,1.10
2023-04-24T13:10:42.596Z,1.63
2023-04-24T13:13:11.446Z,1.27
2023-04-24T13:15:39.995Z,1.30
2023-04-24T13:18:09.053Z,1.55
2023-04-24T13:20:37.650Z,1.30
2023-04-24T13:23:06.452Z,1.35
2023-04-24T13:25:37.435Z,1.00
2023-04-24T13:28:06.190Z,1.30
2023-04-24T13:30:34.614Z,1.67
2023-04-24T13:33:04.460Z,2.20
2023-04-24T13:35:33.063Z,1.70
2023-04-24T13:38:02.627Z,2.03
2023-04-24T13:40:31.055Z,2.10
2023-04-24T13:42:59.814Z,1.98
2023-04-24T13:45:28.310Z,2.55
2023-04-24T13:47:58.313Z,2.42
2023-04-24T13:50:26.885Z,2.70
2023-04-24T13:52:55.689Z,3.13
2023-04-24T13:55:24.372Z,2.40
2023-04-24T13:57:56.244Z,3.20
2023-04-24T14:00:24.907Z,2.40
2023-04-24T14:02:53.985Z,2.80
2023-04-24T14:05:23.331Z,2.10
2023-04-24T14:07:52.692Z,1.92
2023-04-24T14:10:21.337Z,1.73
2023-04-24T14:12:50.247Z,2.33
2023-04-24T14:15:19.020Z,1.90
2023-04-24T14:17:47.816Z,1.95
2023-04-24T14:20:16.420Z,2.08
2023-04-24T14:22:45.241Z,2.15
2023-04-24T14:25:13.688Z,1.75
2023-04-24T14:27:42.735Z,2.03
2023-04-24T14:30:11.630Z,1.85
2023-04-24T14:32:40.818Z,1.77
2023-04-24T14:35:09.432Z,1.80
2023-04-24T14:37:38.264Z,1.60
2023-04-24T14:42:40.751Z,2.15
2023-04-24T14:45:10.183Z,1.90
2023-04-24T14:47:38.968Z,2.15
2023-04-24T14:50:10.046Z,1.85
2023-04-24T14:52:39.106Z,1.95
2023-04-24T14:55:08.149Z,1.92
2023-04-24T14:57:37.457Z,2.45
2023-04-24T15:00:09.674Z,1.95
2023-04-24T15:02:43.103Z,1.95
2023-04-24T15:05:12.872Z,1.70
2023-04-24T15:07:43.107Z,1.88
2023-04-24T15:10:12.051Z,1.70
2023-04-24T15:12:41.123Z,1.88
2023-04-24T15:15:10.522Z,1.35
2023-04-24T15:17:39.515Z,1.63
2023-04-24T15:20:08.900Z,1.60
2023-04-24T15:22:37.941Z,1.67
2023-04-24T15:25:07.232Z,1.90
2023-04-24T15:27:43.921Z,1.52
2023-04-24T15:30:13.062Z,1.70
2023-04-24T15:32:42.012Z,1.50
2023-04-24T15:35:10.932Z,2.15
2023-04-24T15:37:40.089Z,1.75
2023-04-24T15:40:09.653Z,2.00
2023-04-24T15:42:38.372Z,1.05
2023-04-24T15:45:08.398Z,1.05
2023-04-24T15:47:37.681Z,0.82
2023-04-24T15:50:10.995Z,0.50
2023-04-24T15:52:40.949Z,0.52
2023-04-24T15:55:10.029Z,0.45
2023-04-24T15:57:38.986Z,0.50
2023-04-24T16:00:08.727Z,0.40
2023-04-24T16:02:40.907Z,1.13
2023-04-24T16:05:09.859Z,0.90
2023-04-24T16:07:39.971Z,0.43
2023-04-24T16:10:09.088Z,0.60
2023-04-24T16:12:37.855Z,0.38
2023-04-24T16:15:07.161Z,0.80
2023-04-24T16:17:35.917Z,0.85
2023-04-24T16:20:07.787Z,0.88
2023-04-24T16:22:36.486Z,1.00
2023-04-24T16:25:06.247Z,0.63
2023-04-24T16:27:35.312Z,0.75
2023-04-24T16:30:04.706Z,0.50
2023-04-24T16:32:33.551Z,0.60
2023-04-24T16:35:02.234Z,0.70
2023-04-24T16:37:31.487Z,0.80
2023-04-24T16:40:00.155Z,1.23
2023-04-24T16:42:28.936Z,1.00
2023-04-24T16:44:57.386Z,0.82
2023-04-24T16:47:26.297Z,0.98
2023-04-24T16:49:54.937Z,0.80
2023-04-24T16:52:23.770Z,0.80
2023-04-24T16:54:52.158Z,0.82
2023-04-24T16:57:20.993Z,0.90
2023-04-24T16:59:49.387Z,0.82
2023-04-24T17:02:18.101Z,1.10
2023-04-24T17:04:48.233Z,1.27
2023-04-24T17:07:17.888Z,1.95
2023-04-24T17:09:46.305Z,2.22
2023-04-24T17:12:15.015Z,1.88
2023-04-24T17:14:43.340Z,2.08
2023-04-24T17:17:12.073Z,1.95
2023-04-24T17:19:40.527Z,1.73
2023-04-24T17:22:09.565Z,1.92
2023-04-24T17:24:37.975Z,1.80
2023-04-24T17:27:14.490Z,2.28
2023-04-24T17:29:43.973Z,1.90
2023-04-24T17:32:12.749Z,2.00
2023-04-24T17:34:41.300Z,1.80
2023-04-24T17:37:10.051Z,1.65
2023-04-24T17:39:38.486Z,1.80
2023-04-24T17:42:07.247Z,1.92
2023-04-24T17:44:36.033Z,1.73
2023-04-24T17:47:05.051Z,1.88
2023-04-24T17:49:33.651Z,1.70
2023-04-24T17:52:02.367Z,2.20
2023-04-24T17:54:30.890Z,1.92
2023-04-24T17:56:59.577Z,1.85
2023-04-24T17:59:28.014Z,2.05
2023-04-24T18:01:57.787Z,1.92
2023-04-24T18:04:26.587Z,1.70
2023-04-24T18:06:55.435Z,1.45
2023-04-24T18:09:23.835Z,1.55
2023-04-24T18:11:52.548Z,1.52
2023-04-24T18:14:21.234Z,1.45
2023-04-24T18:16:50.000Z,1.70
2023-04-24T18:19:18.344Z,1.83
2023-04-24T18:21:47.094Z,1.13
2023-04-24T18:24:15.531Z,1.60
2023-04-24T18:26:44.252Z,1.38
2023-04-24T18:29:12.665Z,1.92
2023-04-24T18:31:41.535Z,1.90
2023-04-24T18:34:10.104Z,1.88
2023-04-24T18:36:39.096Z,1.95
2023-04-24T18:39:07.516Z,1.58
2023-04-24T18:41:36.192Z,2.10
2023-04-24T18:44:04.541Z,1.38
2023-04-24T18:46:38.206Z,2.38
2023-04-24T18:49:06.877Z,1.30
2023-04-24T18:51:46.494Z,1.05
2023-04-24T18:54:19.128Z,1.50
2023-04-24T18:56:47.843Z,1.17
2023-04-24T18:59:16.245Z,1.58
2023-04-24T19:01:45.069Z,1.08
2023-04-24T19:04:14.296Z,1.10
2023-04-24T19:06:43.157Z,0.90
2023-04-24T19:09:11.622Z,1.00
2023-04-24T19:11:42.152Z,1.23
2023-04-24T19:14:11.270Z,1.02
2023-04-24T19:16:40.417Z,0.80
2023-04-24T19:19:09.053Z,1.02
2023-04-24T19:21:37.876Z,0.77
2023-04-24T19:24:07.622Z,0.80
2023-04-24T19:26:36.465Z,0.80
2023-04-24T19:29:05.256Z,0.63
2023-04-24T19:31:34.260Z,0.80
2023-04-24T19:34:02.688Z,0.60
2023-04-24T19:36:32.615Z,0.60
2023-04-24T19:39:01.460Z,0.68
2023-04-24T19:41:30.630Z,0.80
2023-04-24T19:43:59.188Z,0.73
2023-04-24T19:46:28.146Z,0.77
2023-04-24T19:48:56.857Z,0.88
2023-04-24T19:51:26.129Z,0.80
2023-04-24T19:53:55.149Z,0.65
2023-04-24T19:56:24.031Z,0.98
2023-04-24T19:58:52.397Z,0.65
2023-04-24T20:01:21.391Z,0.73
2023-04-24T20:03:50.833Z,0.60
2023-04-24T20:06:19.800Z,0.77
2023-04-24T20:08:48.581Z,1.17
2023-04-24T20:11:17.538Z,0.73
2023-04-24T20:13:46.086Z,1.20
2023-04-24T20:16:14.892Z,1.02
2023-04-24T20:18:43.620Z,0.93
2023-04-24T20:21:12.574Z,0.98
2023-04-24T20:23:41.174Z,0.80
2023-04-24T20:26:11.483Z,1.00
2023-04-24T20:28:40.141Z,1.00
2023-04-24T20:31:08.987Z,0.70
2023-04-24T20:33:41.740Z,0.90
2023-04-24T20:38:39.029Z,1.35
2023-04-24T20:41:09.072Z,0.90
2023-04-24T20:43:37.905Z,0.80
2023-04-24T20:46:07.270Z,0.90
2023-04-24T20:48:36.472Z,1.20
2023-04-24T20:51:05.201Z,0.82
2023-04-24T20:53:33.685Z,1.17
2023-04-24T20:56:02.684Z,1.38
2023-04-24T20:58:31.232Z,0.80
2023-04-24T21:01:00.191Z,0.90
2023-04-24T21:03:28.921Z,0.82
2023-04-24T21:05:58.232Z,0.80
2023-04-24T21:08:26.746Z,0.90
2023-04-24T21:10:55.637Z,1.25
2023-04-24T21:13:24.037Z,1.13
2023-04-24T21:15:52.837Z,0.80
2023-04-24T21:18:21.359Z,0.70
2023-04-24T21:20:50.823Z,0.60
2023-04-24T21:23:19.356Z,0.70
2023-04-24T21:25:48.225Z,0.65
2023-04-24T21:28:16.674Z,0.98
2023-04-24T21:30:45.435Z,0.77
2023-04-24T21:33:13.938Z,0.60
2023-04-24T21:35:42.830Z,0.73
2023-04-24T21:38:11.303Z,0.52
2023-04-24T21:40:40.497Z,0.77
2023-04-24T21:43:10.048Z,0.70
2023-04-24T21:45:38.861Z,0.70
2023-04-24T21:48:07.397Z,0.82
2023-04-24T21:50:36.341Z,0.70
2023-04-24T21:53:05.683Z,0.90
2023-04-24T21:55:34.474Z,0.75
2023-04-24T21:58:02.972Z,0.50
2023-04-24T22:00:31.656Z,1.08
2023-04-24T22:03:00.362Z,0.82
2023-04-24T22:05:31.090Z,0.95
2023-04-24T22:07:59.602Z,0.82
2023-04-24T22:10:28.674Z,0.82
2023-04-24T22:12:57.159Z,0.82
2023-04-24T22:15:26.413Z,1.17
2023-04-24T22:17:55.289Z,0.90
2023-04-24T22:20:24.295Z,1.20
2023-04-24T22:22:52.797Z,1.17
2023-04-24T22:25:21.548Z,0.65
2023-04-24T22:27:51.033Z,1.10
2023-04-24T22:30:19.782Z,0.70
2023-04-24T22:32:49.039Z,0.85
2023-04-24T22:35:19.665Z,1.10
2023-04-24T22:37:51.617Z,0.90
2023-04-24T22:40:20.354Z,1.00
2023-04-24T22:42:48.869Z,1.23
2023-04-24T22:45:17.987Z,1.10
2023-04-24T22:47:46.495Z,1.48
2023-04-24T22:50:15.443Z,1.27
2023-04-24T22:52:47.982Z,1.13
2023-04-24T22:55:16.910Z,1.55
2023-04-24T22:57:45.345Z,0.98
2023-04-24T23:00:14.312Z,1.50
2023-04-24T23:02:43.180Z,1.30
2023-04-24T23:05:12.124Z,1.20
2023-04-24T23:07:40.995Z,1.40
2023-04-24T23:10:10.303Z,1.20
2023-04-24T23:12:38.970Z,1.25
2023-04-24T23:15:10.265Z,1.20
2023-04-24T23:17:38.738Z,1.00
2023-04-24T23:20:10.435Z,1.20
2023-04-24T23:22:38.851Z,1.13
2023-04-24T23:25:11.303Z,0.80
2023-04-24T23:27:39.828Z,0.90
2023-04-24T23:30:09.271Z,0.80
2023-04-24T23:32:37.748Z,0.63
2023-04-24T23:35:06.959Z,1.02
2023-04-24T23:37:36.388Z,0.90
2023-04-24T23:40:09.889Z,1.17
2023-04-24T23:42:38.615Z,0.68
2023-04-24T23:45:08.396Z,0.90
2023-04-24T23:47:37.590Z,0.88
2023-04-24T23:50:07.095Z,0.77
2023-04-24T23:52:35.729Z,0.85
2023-04-24T23:55:05.166Z,0.60
2023-04-24T23:57:33.494Z,0.68
